地図

経路データ

SID SEASON NUMBER BASIN SUBBASIN NAME ISO_TIME NATURE LAT LON WMO_WIND WMO_PRES WMO_AGENCY TRACK_TYPE DIST2LAND LANDFALL IFLAG USA_AGENCY USA_ATCF_ID USA_LAT USA_LON USA_RECORD USA_STATUS USA_WIND USA_PRES USA_SSHS USA_R34_NE USA_R34_SE USA_R34_SW USA_R34_NW USA_R50_NE USA_R50_SE USA_R50_SW USA_R50_NW USA_R64_NE USA_R64_SE USA_R64_SW USA_R64_NW USA_POCI USA_ROCI USA_RMW USA_EYE TOKYO_LAT TOKYO_LON TOKYO_GRADE TOKYO_WIND TOKYO_PRES TOKYO_R50_DIR TOKYO_R50_LONG TOKYO_R50_SHORT TOKYO_R30_DIR TOKYO_R30_LONG TOKYO_R30_SHORT TOKYO_LAND CMA_LAT CMA_LON CMA_CAT CMA_WIND CMA_PRES HKO_LAT HKO_LON HKO_CAT HKO_WIND HKO_PRES NEWDELHI_LAT NEWDELHI_LON NEWDELHI_GRADE NEWDELHI_WIND NEWDELHI_PRES NEWDELHI_CI NEWDELHI_DP NEWDELHI_POCI REUNION_LAT REUNION_LON REUNION_TYPE REUNION_WIND REUNION_PRES REUNION_TNUM REUNION_CI REUNION_RMW REUNION_R34_NE REUNION_R34_SE REUNION_R34_SW REUNION_R34_NW REUNION_R50_NE REUNION_R50_SE REUNION_R50_SW REUNION_R50_NW REUNION_R64_NE REUNION_R64_SE REUNION_R64_SW REUNION_R64_NW BOM_LAT BOM_LON BOM_TYPE BOM_WIND BOM_PRES BOM_TNUM BOM_CI BOM_RMW BOM_R34_NE BOM_R34_SE BOM_R34_SW BOM_R34_NW BOM_R50_NE BOM_R50_SE BOM_R50_SW BOM_R50_NW BOM_R64_NE BOM_R64_SE BOM_R64_SW BOM_R64_NW BOM_ROCI BOM_POCI BOM_EYE BOM_POS_METHOD BOM_PRES_METHOD NADI_LAT NADI_LON NADI_CAT NADI_WIND NADI_PRES WELLINGTON_LAT WELLINGTON_LON WELLINGTON_WIND WELLINGTON_PRES DS824_LAT DS824_LON DS824_STAGE DS824_WIND DS824_PRES TD9636_LAT TD9636_LON TD9636_STAGE TD9636_WIND TD9636_PRES TD9635_LAT TD9635_LON TD9635_WIND TD9635_PRES TD9635_ROCI NEUMANN_LAT NEUMANN_LON NEUMANN_CLASS NEUMANN_WIND NEUMANN_PRES MLC_LAT MLC_LON MLC_CLASS MLC_WIND MLC_PRES USA_GUST BOM_GUST BOM_GUST_PER REUNION_GUST REUNION_GUST_PER USA_SEAHGT USA_SEARAD_NE USA_SEARAD_SE USA_SEARAD_SW USA_SEARAD_NW STORM_SPEED STORM_DIR
1992242N13166 1992 78 WP MM RYAN 1992-08-29 00:00:00 NR 13.3000 165.900 main 2410 2370 O_____________ jtwc_wp WP171992 13.3000 165.900 15 -1 14 274
1992242N13166 1992 78 WP MM RYAN 1992-08-29 03:00:00 NR 13.3529 165.200 main 2372 2325 P_____________ WP171992 13.3529 165.200 15 -1 14 274
1992242N13166 1992 78 WP MM RYAN 1992-08-29 06:00:00 NR 13.4000 164.500 main 2325 2280 O_____________ jtwc_wp WP171992 13.4000 164.500 15 -1 14 274
1992242N13166 1992 78 WP MM RYAN 1992-08-29 09:00:00 NR 13.4423 163.800 main 2280 2246 P_____________ WP171992 13.4423 163.800 15 -1 14 274
1992242N13166 1992 78 WP MM RYAN 1992-08-29 12:00:00 NR 13.5000 163.100 main 2246 2214 O_____________ jtwc_wp WP171992 13.5000 163.100 15 -1 14 276
1992242N13166 1992 78 WP MM RYAN 1992-08-29 15:00:00 NR 13.5922 162.408 main 2214 2183 P_____________ WP171992 13.5922 162.408 15 -1 14 278
1992242N13166 1992 78 WP MM RYAN 1992-08-29 18:00:00 NR 13.7000 161.700 main 2183 2154 O_____________ jtwc_wp WP171992 13.7000 161.700 15 -1 14 278
1992242N13166 1992 78 WP MM RYAN 1992-08-29 21:00:00 NR 13.7998 160.957 main 2154 2122 P_____________ WP171992 13.7998 160.957 17 -1 15 278
1992242N13166 1992 78 WP MM RYAN 1992-08-30 00:00:00 NR 13.9000 160.200 main 2122 2097 O_____________ jtwc_wp WP171992 13.9000 160.200 20 -1 15 278
1992242N13166 1992 78 WP MM RYAN 1992-08-30 03:00:00 NR 13.9998 159.442 main 2092 2069 P_____________ WP171992 13.9998 159.442 20 -1 15 278
1992242N13166 1992 78 WP MM RYAN 1992-08-30 06:00:00 NR 14.1000 158.700 main 2069 2048 O_____________ jtwc_wp WP171992 14.1000 158.700 20 -1 14 278
1992242N13166 1992 78 WP MM RYAN 1992-08-30 09:00:00 NR 14.1997 157.992 main 2048 2031 P_____________ WP171992 14.1997 157.992 20 -1 14 278
1992242N13166 1992 78 WP MM RYAN 1992-08-30 12:00:00 NR 14.3000 157.300 main 2031 2016 O_____________ jtwc_wp WP171992 14.3000 157.300 20 -1 14 278
1992242N13166 1992 78 WP MM RYAN 1992-08-30 15:00:00 NR 14.3923 156.600 main 2016 2002 P_____________ WP171992 14.3923 156.600 22 -1 14 278
1992242N13166 1992 78 WP MM RYAN 1992-08-30 18:00:00 NR 14.5000 155.900 main 2004 1995 O_____________ jtwc_wp WP171992 14.5000 155.900 25 -1 14 280
1992242N13166 1992 78 WP MM RYAN 1992-08-30 21:00:00 NR 14.6348 155.200 main 1995 1993 P_____________ WP171992 14.6348 155.200 25 -1 14 282
1992242N13166 1992 78 WP MM RYAN 1992-08-31 00:00:00 NR 14.8000 154.500 main 2000 1996 O_____________ jtwc_wp WP171992 14.8000 154.500 25 -1 14 284
1992242N13166 1992 78 WP MM RYAN 1992-08-31 03:00:00 NR 14.9774 153.785 main 2008 2005 P_____________ WP171992 14.9774 153.785 27 -1 14 286
1992242N13166 1992 78 WP MM RYAN 1992-08-31 06:00:00 NR 15.2000 153.100 main 2019 2018 O_____________ jtwc_wp WP171992 15.2000 153.100 30 -1 14 292
1992242N13166 1992 78 WP MM RYAN 1992-08-31 09:00:00 NR 15.4772 152.485 main 2046 2045 P_____________ WP171992 15.4772 152.485 30 -1 13 297
1992242N13166 1992 78 WP MM RYAN 1992-08-31 12:00:00 NR 15.8000 151.900 main 2065 2062 O_____________ jtwc_wp WP171992 15.8000 151.900 30 -1 13 300
1992242N13166 1992 78 WP MM RYAN 1992-08-31 15:00:00 NR 16.1499 151.292 main 2083 2083 P_____________ WP171992 16.1499 151.292 32 -1 15 298
1992242N13166 1992 78 WP MM RYAN 1992-08-31 18:00:00 TS 16.5167 150.500 1008 tokyo main 2111 2109 OO_O__________ jtwc_wp WP171992 16.5000 150.700 35 0 17.0000 151.000 2 1008 0 0 0 16.1000 149.200 TD 25 1000 16 291
1992242N13166 1992 78 WP MM RYAN 1992-08-31 21:00:00 TS 16.7178 149.771 main 2122 2119 PP_P__________ WP171992 16.8373 150.135 35 0 17.0039 149.938 2 1008 0 0 16.1924 148.877 TD 27 1000 15 281
1992242N13166 1992 78 WP MM RYAN 1992-09-01 00:00:00 TS 16.8182 148.945 1008 tokyo main 2123 2121 OOOO__________ jtwc_wp WP171992 17.1000 149.600 35 0 17.0000 149.000 2 1008 0 0 0 16.7000 147.500 0 19 1006 16.3000 148.500 TD 30 1000 14 277
1992242N13166 1992 78 WP MM RYAN 1992-09-01 03:00:00 TS 16.8924 148.291 main 2130 2129 PPPP__________ WP171992 17.2524 149.077 37 0 16.9920 148.288 2 1008 0 0 16.8876 147.200 0 21 1005 16.4352 148.055 TD 30 1000 11 278
1992242N13166 1992 78 WP MM RYAN 1992-09-01 06:00:00 TS 16.9733 147.827 1008 tokyo main 2139 2139 OOOO__________ jtwc_wp WP171992 17.3000 148.600 40 0 17.0000 147.800 2 1008 0 0 0 17.0000 147.000 1 23 1004 16.6000 147.700 TD 30 1000 7 280
1992242N13166 1992 78 WP MM RYAN 1992-09-01 09:00:00 TS 17.0230 147.546 main 2136 2122 PPPP__________ WP171992 17.2574 148.170 42 0 17.0422 147.483 2 1007 0 0 17.0000 146.962 1 23 1004 16.7923 147.567 TD 32 997 4 285
1992242N13166 1992 78 WP MM RYAN 1992-09-01 12:00:00 TS 17.0750 147.425 1006 tokyo main 2122 2108 OOOO__________ jtwc_wp WP171992 17.2000 147.800 45 0 17.1000 147.300 2 1006 0 0 0 17.0000 147.000 1 23 1004 17.0000 147.600 TS 35 995 3 305
1992242N13166 1992 78 WP MM RYAN 1992-09-01 15:00:00 TS 17.1688 147.329 main 2108 2098 PPPP__________ WP171992 17.2200 147.455 50 0 17.1275 147.120 2 1005 0 0 17.1275 147.007 1 23 1003 17.2001 147.735 TS 37 992 3 328
1992242N13166 1992 78 WP MM RYAN 1992-09-01 18:00:00 TS 17.3000 147.275 1004 tokyo main 2098 2073 OOOO__________ jtwc_wp WP171992 17.3000 147.200 55 0 17.2000 147.000 2 1004 0 0 0 17.3000 147.000 1 23 1002 17.4000 147.900 TS 40 990 3 341
1992242N13166 1992 78 WP MM RYAN 1992-09-01 21:00:00 TS 17.4637 147.232 main 2073 2062 PPPP__________ WP171992 17.4349 147.055 57 0 17.3700 146.935 2 1001 0 0 17.4425 146.950 1 26 1000 17.6075 147.987 TS 42 987 4 349
1992242N13166 1992 78 WP MM RYAN 1992-09-02 00:00:00 TS 17.6500 147.200 35 998 tokyo main 2052 2041 OOOO__________ jtwc_wp WP171992 17.6000 147.000 60 0 17.6000 146.900 3 35 998 0 9 90 90 0 17.6000 146.900 1 29 998 17.8000 148.000 TS 45 985 4 350
1992242N13166 1992 78 WP MM RYAN 1992-09-02 03:00:00 TS 17.8412 147.161 main 2041 2017 PPPP__________ WP171992 17.7500 146.977 60 0 17.8500 146.843 3 37 996 0 9 90 90 17.8000 146.900 1 33 996 17.9650 147.923 TS 47 982 4 349
1992242N13166 1992 78 WP MM RYAN 1992-09-02 06:00:00 TS 18.0250 147.125 40 994 tokyo main 2017 1995 OOOO__________ jtwc_wp WP171992 17.9000 147.000 60 0 18.1000 146.800 3 40 994 0 9 90 90 0 18.0000 146.900 2 38 995 18.1000 147.800 STS 50 980 4 350
1992242N13166 1992 78 WP MM RYAN 1992-09-02 09:00:00 TS 18.1900 147.096 main 1995 1985 PPPP__________ WP171992 18.0575 147.050 62 0 18.3300 146.785 3 42 989 0 9 100 100 18.1650 146.850 2 38 992 18.2075 147.700 STS 52 977 3 355
1992242N13166 1992 78 WP MM RYAN 1992-09-02 12:00:00 TS 18.3250 147.075 45 985 tokyo main 1985 1974 OOOO__________ jtwc_wp WP171992 18.2000 147.100 65 1 18.5000 146.800 3 45 985 0 9 110 110 0 18.3000 146.800 2 38 990 18.3000 147.600 STS 55 975 2 352
1992242N13166 1992 78 WP MM RYAN 1992-09-02 15:00:00 TS 18.4219 147.057 main 1974 1960 PPPP__________ WP171992 18.3075 147.108 65 1 18.5725 146.835 3 47 982 0 9 115 115 18.4075 146.785 2 43 987 18.4000 147.500 STS 55 975 2 352
1992242N13166 1992 78 WP MM RYAN 1992-09-02 18:00:00 TS 18.5000 147.050 50 980 tokyo main 1964 1953 OOOO__________ jtwc_wp WP171992 18.4000 147.100 65 1 18.6000 146.900 4 50 980 0 9 120 120 0 18.5000 146.800 3 48 985 18.5000 147.400 STS 55 975 2 7
1992242N13166 1992 78 WP MM RYAN 1992-09-02 21:00:00 TS 18.5838 147.059 main 1953 1943 PPPP__________ WP171992 18.5000 147.100 67 1 18.6425 147.000 4 50 980 0 9 125 125 18.5925 146.835 3 53 982 18.6000 147.300 STS 55 975 2 8
1992242N13166 1992 78 WP MM RYAN 1992-09-03 00:00:00 TS 18.6750 147.075 50 980 tokyo main 1943 1932 OOOO__________ jtwc_wp WP171992 18.6000 147.100 70 1 18.7000 147.100 4 50 980 0 9 130 130 0 18.7000 146.900 3 58 980 18.7000 147.200 STS 55 975 2 13
1992242N13166 1992 78 WP MM RYAN 1992-09-03 03:00:00 TS 18.7875 147.101 main 1932 1922 PPPP__________ WP171992 18.7075 147.100 70 1 18.7850 147.195 4 55 977 0 9 145 145 18.8650 147.007 3 58 977 18.7925 147.100 STS 57 972 2 0
1992242N13166 1992 78 WP MM RYAN 1992-09-03 06:00:00 TS 18.9000 147.100 60 975 tokyo main 1922 1908 OOOO__________ jtwc_wp WP171992 18.8000 147.100 70 1 18.9000 147.200 4 60 975 9 50 50 9 160 160 0 19.0000 147.100 3 58 975 18.9000 147.000 STS 60 970 2 345
1992242N13166 1992 78 WP MM RYAN 1992-09-03 09:00:00 TS 18.9969 147.040 main 1908 1897 PPPP__________ WP171992 18.8500 147.107 72 1 19.0651 147.023 4 62 972 9 55 55 9 160 160 19.0225 147.115 3 63 972 19.0500 146.915 STS 65 965 2 320
1992242N13166 1992 78 WP MM RYAN 1992-09-03 12:00:00 TS 19.0750 146.950 65 970 tokyo main 1897 1894 OOOO__________ jtwc_wp WP171992 18.9000 147.100 75 1 19.2000 146.800 5 65 970 9 60 60 9 160 160 0 19.0000 147.100 4 68 970 19.2000 146.800 T 70 960 2 312
1992242N13166 1992 78 WP MM RYAN 1992-09-03 15:00:00 TS 19.1456 146.863 main 1894 1879 PPPP__________ WP171992 19.0000 147.058 75 1 19.2450 146.662 5 67 967 9 60 60 9 160 160 19.0000 147.130 4 68 970 19.3376 146.600 T 70 957 2 302
1992242N13166 1992 78 WP MM RYAN 1992-09-03 18:00:00 TS 19.1750 146.775 70 965 tokyo main 1879 1876 OOOO__________ jtwc_wp WP171992 19.1000 147.000 75 1 19.2000 146.600 5 70 965 9 60 60 9 160 160 0 19.0000 147.100 4 68 970 19.4000 146.400 T 70 955 2 264
1992242N13166 1992 78 WP MM RYAN 1992-09-03 21:00:00 TS 19.1269 146.676 main 1887 1883 PPPP__________ WP171992 19.1575 146.950 77 1 19.0425 146.613 5 70 965 9 60 60 9 160 160 18.9851 146.885 4 72 965 19.3225 146.255 T 70 955 2 235
1992242N13166 1992 78 WP MM RYAN 1992-09-04 00:00:00 TS 19.0750 146.625 70 965 tokyo main 1883 1883 OOOO__________ jtwc_wp WP171992 19.2000 146.900 80 1 18.9000 146.700 5 70 965 9 60 60 9 160 160 0 19.0000 146.700 4 77 960 19.2000 146.200 T 70 955 0 0
1992242N13166 1992 78 WP MM RYAN 1992-09-04 03:00:00 TS 19.0994 146.685 main 1887 1887 PPPP__________ WP171992 19.2500 146.843 82 1 18.9126 146.857 5 70 965 9 60 60 9 160 160 19.1000 146.770 4 77 960 19.1350 146.270 T 70 955 2 63
1992242N13166 1992 78 WP MM RYAN 1992-09-04 06:00:00 TS 19.1500 146.775 70 965 tokyo main 1879 1879 OOOO__________ jtwc_wp WP171992 19.3000 146.800 85 2 19.0000 147.000 5 70 965 9 60 60 9 160 160 0 19.2000 146.900 4 77 960 19.1000 146.400 T 70 955 1 53
1992242N13166 1992 78 WP MM RYAN 1992-09-04 09:00:00 TS 19.1875 146.811 main 1879 1879 PPPP__________ WP171992 19.3500 146.800 87 2 19.1000 147.023 5 72 962 9 65 65 9 165 165 19.2150 146.915 4 77 960 19.0850 146.508 T 72 952 1 32
1992242N13166 1992 78 WP MM RYAN 1992-09-04 12:00:00 TS 19.2250 146.825 75 960 tokyo main 1879 1879 OOOO__________ jtwc_wp WP171992 19.4000 146.800 90 2 19.2000 147.000 5 75 960 9 70 70 9 170 170 0 19.2000 146.900 4 77 960 19.1000 146.600 T 75 950 1 22
1992242N13166 1992 78 WP MM RYAN 1992-09-04 15:00:00 TS 19.2512 146.827 main 1869 1869 PPPP__________ WP171992 19.4425 146.750 90 2 19.2500 147.000 5 75 957 9 70 70 9 175 175 19.1775 146.900 4 77 960 19.1350 146.658 T 75 950 1 19
1992242N13166 1992 78 WP MM RYAN 1992-09-04 18:00:00 TS 19.3000 146.825 75 955 tokyo main 1869 1858 OOOO__________ jtwc_wp WP171992 19.5000 146.700 90 2 19.3000 147.000 5 75 955 9 70 70 9 180 180 0 19.2000 146.900 4 77 960 19.2000 146.700 T 75 950 2 0
1992242N13166 1992 78 WP MM RYAN 1992-09-04 21:00:00 TS 19.4012 146.841 main 1858 1848 PPPP__________ WP171992 19.6000 146.692 90 2 19.3850 147.007 5 75 955 9 75 75 9 215 215 19.3350 146.907 4 77 957 19.2850 146.757 T 75 950 2 0
1992242N13166 1992 78 WP MM RYAN 1992-09-05 00:00:00 TS 19.5250 146.850 75 955 tokyo main 1852 1837 OOOO__________ jtwc_wp WP171992 19.7000 146.700 90 2 19.5000 147.000 5 75 955 9 80 80 9 250 250 0 19.5000 146.900 4 77 955 19.4000 146.800 T 75 950 2 359
1992242N13166 1992 78 WP MM RYAN 1992-09-05 03:00:00 TS 19.6319 146.825 main 1837 1827 PPPP__________ WP171992 19.7425 146.693 92 2 19.6500 146.958 5 75 955 9 80 80 9 250 250 19.6000 146.850 4 77 955 19.5350 146.800 T 75 950 2 352
1992242N13166 1992 78 WP MM RYAN 1992-09-05 06:00:00 TS 19.7500 146.800 75 955 tokyo main 1816 1806 OOOO__________ jtwc_wp WP171992 19.8000 146.700 95 2 19.8000 146.900 5 75 955 9 80 80 9 250 250 0 19.7000 146.800 4 77 955 19.7000 146.800 T 75 950 2 356
1992242N13166 1992 78 WP MM RYAN 1992-09-05 09:00:00 TS 19.8719 146.801 main 1806 1796 PPPP__________ WP171992 19.9200 146.735 95 2 19.8700 146.835 5 75 955 9 80 80 9 250 250 19.8125 146.792 4 77 955 19.8850 146.842 T 75 950 3 0
1992242N13166 1992 78 WP MM RYAN 1992-09-05 12:00:00 TS 20.0500 146.825 75 955 tokyo main 1785 1764 OOOO__________ jtwc_wp WP171992 20.1000 146.800 95 2 20.0000 146.800 5 75 955 9 80 80 9 250 250 0 20.0000 146.800 4 77 955 20.1000 146.900 T 75 950 4 5
1992242N13166 1992 78 WP MM RYAN 1992-09-05 15:00:00 TS 20.3162 146.851 main 1768 1737 PPPP__________ WP171992 20.3125 146.885 97 3 20.3125 146.813 5 77 952 9 90 90 9 275 275 20.3199 146.763 4 77 955 20.3200 146.943 T 75 950 6 9
1992242N13166 1992 78 WP MM RYAN 1992-09-05 18:00:00 TS 20.6500 146.925 80 950 tokyo main 1726 1703 OOOO__________ jtwc_wp WP171992 20.6000 147.000 100 3 20.7000 146.900 5 80 950 9 100 100 9 300 300 0 20.7000 146.800 4 77 955 20.6000 147.000 T 75 950 7 17
1992242N13166 1992 78 WP MM RYAN 1992-09-05 21:00:00 TS 20.9856 147.076 main 1703 1670 PPPP__________ WP171992 20.9700 147.143 102 3 21.0050 147.070 5 82 947 9 100 100 9 325 300 21.0051 147.013 4 82 952 20.9625 147.078 T 77 947 8 23
1992242N13166 1992 78 WP MM RYAN 1992-09-06 00:00:00 TS 21.4000 147.275 85 945 tokyo main 1670 1624 OOOO__________ jtwc_wp WP171992 21.4000 147.300 105 3 21.4000 147.300 5 85 945 9 100 100 3 350 300 0 21.4000 147.300 5 87 950 21.4000 147.200 T 80 945 11 21
1992242N13166 1992 78 WP MM RYAN 1992-09-06 03:00:00 TS 21.9625 147.485 main 1618 1577 PPPP__________ WP171992 21.8424 147.435 107 3 22.0576 147.557 5 85 945 9 100 100 3 400 300 22.0575 147.565 5 87 950 21.8925 147.385 T 80 945 12 19
1992242N13166 1992 78 WP MM RYAN 1992-09-06 06:00:00 TS 22.5250 147.700 85 945 tokyo main 1577 1547 OOOO__________ jtwc_wp WP171992 22.3000 147.600 110 3 22.7000 147.800 5 85 945 9 100 100 3 450 300 0 22.7000 147.800 5 87 950 22.4000 147.600 T 80 945 10 21
1992242N13166 1992 78 WP MM RYAN 1992-09-06 09:00:00 TS 22.9187 147.880 main 1547 1518 PPPP__________ WP171992 22.7500 147.835 110 3 23.0299 147.951 5 85 945 9 100 100 3 450 300 23.0299 147.951 5 92 947 22.8649 147.785 T 82 942 8 25
1992242N13166 1992 78 WP MM RYAN 1992-09-06 12:00:00 TS 23.2750 148.075 85 945 tokyo main 1518 1489 OOOO__________ jtwc_wp WP171992 23.2000 148.100 110 3 23.3000 148.100 5 85 945 9 100 100 3 450 300 0 23.3000 148.100 5 97 945 23.3000 148.000 ST 85 940 9 26
1992242N13166 1992 78 WP MM RYAN 1992-09-06 15:00:00 TS 23.7124 148.310 main 1489 1462 PPPP__________ WP171992 23.6649 148.343 110 3 23.7349 148.313 5 85 945 9 100 100 3 450 300 23.7349 148.313 5 97 945 23.7149 148.270 ST 85 940 10 29
1992242N13166 1992 78 WP MM RYAN 1992-09-06 18:00:00 TS 24.1500 148.600 85 945 tokyo main 1458 1446 OOOO__________ jtwc_wp WP171992 24.1000 148.600 110 3 24.2000 148.600 5 85 945 9 100 100 3 450 300 0 24.2000 148.600 5 97 945 24.1000 148.600 ST 85 940 10 36
1992242N13166 1992 78 WP MM RYAN 1992-09-06 21:00:00 TS 24.5496 148.984 main 1451 1431 PPPP__________ WP171992 24.4726 148.908 112 3 24.6302 149.007 5 85 945 9 100 100 3 450 300 24.6302 149.007 5 97 945 24.4652 149.015 ST 82 942 10 42
1992242N13166 1992 78 WP MM RYAN 1992-09-07 00:00:00 TS 24.9000 149.350 85 945 tokyo main 1431 1421 OOOO__________ jtwc_wp WP171992 24.8000 149.200 115 4 25.0000 149.400 5 85 945 9 100 100 3 450 300 0 25.0000 149.400 5 97 945 24.8000 149.400 T 80 945 8 40
1992242N13166 1992 78 WP MM RYAN 1992-09-07 03:00:00 TS 25.1899 149.586 main 1421 1409 PPPP__________ WP171992 25.1149 149.423 115 4 25.2648 149.638 5 85 945 9 100 100 3 450 300 25.2648 149.638 5 97 945 25.1148 149.645 T 80 945 7 33
1992242N13166 1992 78 WP MM RYAN 1992-09-07 06:00:00 TS 25.4500 149.750 85 945 tokyo main 1406 1395 OOOO__________ jtwc_wp WP171992 25.4000 149.600 115 4 25.5000 149.800 5 85 945 9 100 100 3 450 300 0 25.5000 149.800 5 97 945 25.4000 149.800 T 80 945 6 29
1992242N13166 1992 78 WP MM RYAN 1992-09-07 09:00:00 TS 25.7325 149.914 main 1395 1375 PPPP__________ WP171992 25.6575 149.773 112 3 25.8075 149.980 5 85 945 9 100 100 3 450 300 25.8075 149.980 5 97 945 25.6575 149.923 T 80 945 6 24
1992242N13166 1992 78 WP MM RYAN 1992-09-07 12:00:00 TS 26.0000 150.025 85 945 tokyo main 1375 1364 OOOO__________ jtwc_wp WP171992 25.9000 149.900 110 3 26.1000 150.100 5 85 945 9 100 100 3 450 300 0 26.1000 150.100 5 97 945 25.9000 150.000 T 80 945 5 17
1992242N13166 1992 78 WP MM RYAN 1992-09-07 15:00:00 TS 26.2325 150.080 main 1364 1347 PPPP__________ WP171992 26.1500 149.987 107 3 26.3150 150.130 5 85 945 9 100 100 3 400 300 26.3150 150.130 5 92 947 26.1500 150.072 T 80 945 5 4
1992242N13166 1992 78 WP MM RYAN 1992-09-07 18:00:00 TS 26.4500 150.075 85 945 tokyo main 1339 1322 OOOO__________ jtwc_wp WP171992 26.4000 150.000 105 3 26.5000 150.100 5 85 945 9 100 100 3 350 300 0 26.5000 150.100 5 87 950 26.4000 150.100 T 80 945 4 358
1992242N13166 1992 78 WP MM RYAN 1992-09-07 21:00:00 TS 26.6674 150.050 main 1315 1299 PPPP__________ WP171992 26.6500 149.938 102 3 26.6849 150.087 5 82 947 9 100 100 3 325 300 26.6850 150.080 5 87 950 26.6499 150.095 T 80 945 5 346
1992242N13166 1992 78 WP MM RYAN 1992-09-08 00:00:00 TS 26.9000 149.950 80 950 tokyo main 1299 1260 OOOO__________ jtwc_wp WP171992 26.9000 149.800 100 3 26.9000 150.000 5 80 950 9 100 100 9 300 300 0 26.9000 150.000 5 87 950 26.9000 150.000 T 80 945 6 334
1992242N13166 1992 78 WP MM RYAN 1992-09-08 03:00:00 TS 27.1843 149.768 main 1260 1224 PPPP__________ WP171992 27.1574 149.630 95 2 27.2075 149.795 5 80 950 9 100 100 9 300 300 27.2074 149.853 5 87 950 27.1650 149.795 T 77 947 7 324
1992242N13166 1992 78 WP MM RYAN 1992-09-08 06:00:00 TS 27.4500 149.500 80 950 tokyo main 1216 1188 OOOO__________ jtwc_wp WP171992 27.4000 149.400 90 2 27.5000 149.500 5 80 950 9 100 100 9 300 300 0 27.5000 149.600 5 87 950 27.4000 149.500 T 75 950 7 310
1992242N13166 1992 78 WP MM RYAN 1992-09-08 09:00:00 TS 27.6275 149.176 main 1188 1145 PPPP__________ WP171992 27.6074 149.130 87 2 27.6725 149.172 5 80 950 9 100 100 9 300 300 27.6726 149.230 5 87 950 27.5575 149.172 T 72 952 7 298
1992242N13166 1992 78 WP MM RYAN 1992-09-08 12:00:00 TS 27.7750 148.800 80 950 tokyo main 1145 1110 OOOO__________ jtwc_wp WP171992 27.8000 148.800 85 2 27.8000 148.800 5 80 950 9 100 100 9 300 300 0 27.8000 148.800 5 87 950 27.7000 148.800 T 70 955 8 295
1992242N13166 1992 78 WP MM RYAN 1992-09-08 15:00:00 TS 27.9444 148.404 main 1110 1068 PPPP__________ WP171992 28.0000 148.415 82 1 27.9425 148.400 5 77 952 9 95 95 9 290 290 27.9424 148.392 5 87 950 27.8924 148.407 T 70 955 8 296
1992242N13166 1992 78 WP MM RYAN 1992-09-08 18:00:00 TS 28.1250 148.000 75 955 tokyo main 1068 1026 OOOO__________ jtwc_wp WP171992 28.2000 148.000 80 1 28.1000 148.000 5 75 955 9 90 90 9 280 280 0 28.1000 148.000 5 87 950 28.1000 148.000 T 70 955 8 297
1992242N13166 1992 78 WP MM RYAN 1992-09-08 21:00:00 TS 28.2986 147.628 main 1026 990 PPPP__________ WP171992 28.3849 147.600 80 1 28.2622 147.657 5 75 955 9 90 90 9 280 280 28.2622 147.657 5 87 950 28.2849 147.600 T 72 952 8 301
1992242N13166 1992 78 WP MM RYAN 1992-09-09 00:00:00 TS 28.5250 147.250 75 955 tokyo main 990 939 OOOO__________ jtwc_wp WP171992 28.6000 147.200 80 1 28.5000 147.300 5 75 955 9 90 90 9 280 280 0 28.5000 147.300 5 87 950 28.5000 147.200 T 75 950 9 309
1992242N13166 1992 78 WP MM RYAN 1992-09-09 03:00:00 TS 28.8581 146.829 main 924 874 PPPP__________ WP171992 28.8849 146.800 80 1 28.8851 146.858 5 75 955 9 90 90 9 280 280 28.8851 146.858 5 87 950 28.7774 146.800 T 75 950 10 313
1992242N13166 1992 78 WP MM RYAN 1992-09-09 06:00:00 TS 29.2250 146.400 75 955 tokyo main 874 824 OOOO__________ jtwc_wp WP171992 29.2000 146.400 80 1 29.3000 146.400 5 75 955 9 90 90 9 280 280 0 29.3000 146.400 5 87 950 29.1000 146.400 T 75 950 10 313
1992242N13166 1992 78 WP MM RYAN 1992-09-09 09:00:00 TS 29.5318 145.986 main 824 774 PPPP__________ WP171992 29.4925 145.985 77 1 29.5999 145.984 5 75 955 9 90 90 9 280 280 29.5999 145.984 5 82 952 29.4349 145.992 T 75 950 9 312
1992242N13166 1992 78 WP MM RYAN 1992-09-09 12:00:00 TS 29.8500 145.600 75 955 tokyo main 765 721 OOOO__________ jtwc_wp WP171992 29.8000 145.600 75 1 29.9000 145.600 5 75 955 9 90 90 9 280 280 0 29.9000 145.600 4 77 955 29.8000 145.600 T 75 950 9 317
1992242N13166 1992 78 WP MM RYAN 1992-09-09 15:00:00 TS 30.2205 145.242 main 715 662 PPPP__________ WP171992 30.1274 145.270 75 1 30.2850 145.227 5 75 957 9 90 90 9 280 280 30.2850 145.227 4 77 955 30.1848 145.242 T 72 952 10 323
1992242N13166 1992 78 WP MM RYAN 1992-09-09 18:00:00 TS 30.6250 144.925 75 960 tokyo main 662 609 OOOO__________ jtwc_wp WP171992 30.5000 145.000 75 1 30.7000 144.900 5 75 960 9 90 90 9 280 280 0 30.7000 144.900 4 77 955 30.6000 144.900 T 70 955 10 327
1992242N13166 1992 78 WP MM RYAN 1992-09-09 21:00:00 TS 31.0237 144.632 main 609 563 PPPP__________ WP171992 30.9199 144.777 72 1 31.0774 144.620 5 75 960 9 90 90 9 280 280 31.0699 144.620 4 77 955 31.0276 144.513 T 67 955 10 332
1992242N13166 1992 78 WP MM RYAN 1992-09-10 00:00:00 TS 31.4750 144.400 75 960 tokyo main 554 500 OOOO__________ jtwc_wp WP171992 31.4000 144.600 70 1 31.5000 144.400 5 75 960 9 90 90 9 280 280 0 31.5000 144.400 4 77 955 31.5000 144.200 T 65 955 11 340
1992242N13166 1992 78 WP MM RYAN 1992-09-10 03:00:00 TS 32.0092 144.218 main 500 447 PPPP__________ WP171992 31.9200 144.420 70 1 32.0193 144.206 5 75 960 9 90 90 9 280 280 32.0700 144.205 4 77 955 32.0273 144.040 T 62 957 12 348
1992242N13166 1992 78 WP MM RYAN 1992-09-10 06:00:00 TS 32.6000 144.125 75 960 tokyo main 447 404 OOOO__________ jtwc_wp WP171992 32.5000 144.300 70 1 32.6000 144.100 5 75 960 9 90 90 9 280 280 0 32.7000 144.100 4 77 955 32.6000 144.000 STS 60 960 12 355
1992242N13166 1992 78 WP MM RYAN 1992-09-10 09:00:00 TS 33.2012 144.105 75 960 tokyo main 404 367 POPP__________ WP171992 33.1274 144.240 67 1 33.2000 144.100 5 75 960 9 90 90 9 280 280 0 33.2924 144.090 4 77 957 33.1849 143.990 STS 57 962 12 3
1992242N13166 1992 78 WP MM RYAN 1992-09-10 12:00:00 TS 33.8250 144.200 75 960 tokyo main 367 341 OOOO__________ jtwc_wp WP171992 33.8000 144.300 65 1 33.8000 144.200 5 75 960 9 90 90 9 280 280 0 33.9000 144.200 4 77 960 33.8000 144.100 STS 55 965 13 10
1992242N13166 1992 78 WP MM RYAN 1992-09-10 15:00:00 TS 34.4411 144.375 70 965 tokyo main 349 340 POPP__________ WP171992 34.4548 144.476 62 0 34.4000 144.300 5 70 965 9 90 90 9 280 280 0 34.5198 144.383 4 77 960 34.3900 144.341 STS 55 965 14 18
1992242N13166 1992 78 WP MM RYAN 1992-09-10 18:00:00 TS 35.1500 144.725 70 965 tokyo main 347 347 OOOO__________ jtwc_wp WP171992 35.2000 144.800 60 0 35.1000 144.700 5 70 965 9 90 90 9 300 300 0 35.2000 144.700 4 77 960 35.1000 144.700 STS 55 965 16 23
1992242N13166 1992 78 WP MM RYAN 1992-09-10 21:00:00 TS 35.9321 145.144 70 965 tokyo main 378 378 POPP__________ WP171992 36.0676 145.249 57 0 35.8000 145.000 5 70 965 9 90 90 9 300 300 0 35.8732 145.193 4 72 962 35.9878 145.135 STS 55 965 20 24
1992242N13166 1992 78 WP MM RYAN 1992-09-11 00:00:00 TS 36.9400 145.707 70 965 tokyo main 400 374 OOOO__________ jtwc_wp WP171992 37.1000 145.800 55 0 36.8000 145.700 5 70 965 9 90 90 3 450 300 0 36.8000 145.700 4 68 965 37.1000 145.600 STS 55 965 24 19
1992242N13166 1992 78 WP MM RYAN 1992-09-11 03:00:00 TS 38.2326 146.124 70 965 tokyo main 374 363 POPP__________ WP171992 38.2677 146.393 55 0 38.2000 146.000 5 70 965 9 90 90 3 450 300 0 38.1276 146.032 4 68 965 38.4375 146.015 STS 52 965 29 13
1992242N13166 1992 78 WP MM RYAN 1992-09-11 06:00:00 TS 39.7769 146.523 70 965 tokyo main 362 244 OOOO__________ jtwc_wp WP171992 39.6000 147.000 55 0 39.9000 146.300 5 70 965 9 90 90 3 450 300 0 39.8000 146.300 4 68 965 39.9000 146.400 STS 50 965 33 12
1992242N13166 1992 78 WP MM RYAN 1992-09-11 09:00:00 TS 41.4451 147.010 70 965 tokyo main 234 137 POP___________ WP171992 41.0552 147.601 52 0 41.5000 146.800 5 70 965 9 90 90 3 450 300 0 41.7800 146.627 4 68 965 STS 36 9
1992242N13166 1992 78 WP MM RYAN 1992-09-11 12:00:00 TS 43.3333 147.300 65 965 tokyo main 135 11 OOO___________ jtwc_wp WP171992 42.6000 148.100 50 0 43.7000 146.900 5 65 965 9 90 90 3 450 300 0 43.7000 146.900 4 68 965 33 6
1992242N13166 1992 78 WP MM RYAN 1992-09-11 15:00:00 TS 44.7130 147.447 65 965 tokyo main 0 0 POP___________ WP171992 44.1346 148.420 47 0 44.9000 146.900 5 65 965 9 90 90 3 450 350 0 45.1044 147.020 4 63 967 28 3
1992242N13166 1992 78 WP MM RYAN 1992-09-11 18:00:00 TS 46.1364 147.509 60 970 tokyo main 94 94 OOO___________ jtwc_wp WP171992 45.7000 148.600 45 0 46.3000 147.100 4 60 970 9 90 90 3 450 350 0 46.3000 147.100 3 58 970 27 3
1992242N13166 1992 78 WP MM RYAN 1992-09-11 21:00:00 TS 47.3805 147.654 60 970 tokyo main 229 219 POP___________ WP171992 47.2926 148.714 45 0 47.3000 147.500 4 60 970 9 90 90 3 450 350 0 47.5051 147.279 3 58 970 27 2
1992242N13166 1992 78 WP MM RYAN 1992-09-12 00:00:00 ET 48.8125 147.663 970 tokyo main 218 218 OOO___________ jtwc_wp WP171992 48.9000 148.800 45 0 48.8000 147.500 6 970 0 0 0 48.8000 147.500 9 58 970 30 1
1992242N13166 1992 78 WP MM RYAN 1992-09-12 03:00:00 ET 50.4169 147.732 main 267 267 _PP___________ WP171992 -1 50.4615 147.727 6 970 0 0 50.3276 147.741 9 53 972 32 4
1992242N13166 1992 78 WP MM RYAN 1992-09-12 06:00:00 ET 52.0000 148.000 970 tokyo main 318 312 _OO___________ -1 52.0000 148.000 6 970 0 0 0 52.0000 148.000 9 48 975 26 3
1992242N13166 1992 78 WP MM RYAN 1992-09-12 09:00:00 ET 53.0519 147.972 main 312 307 _P____________ -1 53.0519 147.972 6 972 0 0 9 20 0
1992242N13166 1992 78 WP MM RYAN 1992-09-12 12:00:00 ET 54.0000 148.000 974 tokyo main 323 323 _O____________ -1 54.0000 148.000 6 974 0 0 0 23 8
1992242N13166 1992 78 WP MM RYAN 1992-09-12 15:00:00 ET 55.3260 148.487 main 375 288 _P____________ -1 55.3260 148.487 6 975 0 0 26 13
1992242N13166 1992 78 WP MM RYAN 1992-09-12 18:00:00 ET 56.5000 149.000 976 tokyo main 288 228 _O____________ -1 56.5000 149.000 6 976 0 0 0 18 11
1992242N13166 1992 78 WP MM RYAN 1992-09-12 21:00:00 ET 57.0745 149.081 main 228 188 _P____________ -1 57.0745 149.081 6 978 0 0 10 1
1992242N13166 1992 78 WP MM RYAN 1992-09-13 00:00:00 ET 57.5000 149.000 980 tokyo main 188 110 _O____________ -1 57.5000 149.000 6 980 0 0 0 11 0
1992242N13166 1992 78 WP MM RYAN 1992-09-13 03:00:00 ET 58.2125 149.035 main 110 22 _P____________ -1 58.2125 149.035 6 982 0 0 15 0
1992242N13166 1992 78 WP MM RYAN 1992-09-13 06:00:00 ET 59.0000 149.000 984 tokyo main 22 0 _O____________ -1 59.0000 149.000 6 984 0 0 0 15 356
1992242N13166 1992 78 WP MM RYAN 1992-09-13 09:00:00 ET 59.7627 148.804 main 0 0 _P____________ -1 59.7627 148.804 6 989 0 0 15 350
1992242N13166 1992 78 WP MM RYAN 1992-09-13 12:00:00 ET 60.5000 148.500 994 tokyo main 0 _O____________ -1 60.5000 148.500 6 994 0 0 0 15 349

デジタル台風データ・検索

IBTrACS Databaseについて

本データベースは、米国NOAAが公開する1842年以降の世界の熱帯低気圧のベストトラックデータアーカイブInternational Best Track Archive for Climate Stewardship (IBTrACS)を、ウェブで閲覧しやすい形式に変換したものです。

最終更新日:2021-10-21